Time;durP1;ratioP1;P1;durP2;ratioP2;P2;SDS_P1;SDS_P2;PMS_P1;PMS_P2;Temp;Humidity;BMP_temperature;BMP_pressure;BME280_temperature;BME280_humidity;BME280_pressure;Samples;Min_cycle;Max_cycle;Signal;HPM_P1;HPM_P2
2023/01/20 00:07:11;;;;;;;75.85;17.90;;;1.30;99.90;;;;;;5933625;24;20204;-82
2023/01/20 00:13:56;;;;;;;;;;;;;;;;;;;;;
2023/01/20 00:20:11;;;;;;;76.18;21.98;;;1.40;99.90;;;;;;6015501;23;20637;-82
2023/01/20 00:23:12;;;;;;;82.15;28.60;;;1.40;99.90;;;;;;6072041;23;20164;-82
2023/01/20 00:26:04;;;;;;;84.47;26.45;;;1.30;99.90;;;;;;6192134;23;20152;-82
2023/01/20 00:32:09;;;;;;;;;;;;;;;;;;;;;
2023/01/20 00:35:00;;;;;;;84.68;22.20;;;1.30;99.90;;;;;;6043603;23;20148;-82
2023/01/20 00:38:17;;;;;;;77.78;22.40;;;1.40;99.90;;;;;;6046025;23;20175;-82
2023/01/20 00:41:34;;;;;;;78.53;20.60;;;1.40;99.90;;;;;;6044448;23;20172;-82
2023/01/20 00:44:53;;;;;;;79.32;20.45;;;1.50;99.90;;;;;;5987104;24;20157;-82
2023/01/20 00:48:04;;;;;;;77.88;20.38;;;1.40;99.90;;;;;;5992654;23;20175;-82
2023/01/20 00:54:16;;;;;;;81.30;18.40;;;1.50;99.90;;;;;;6076551;23;20163;-82
2023/01/20 00:56:59;;;;;;;75.32;17.98;;;1.50;99.90;;;;;;6075478;23;20151;-82
2023/01/20 01:00:45;;;;;;;;;;;;;;;;;;;;;
2023/01/20 01:04:06;;;;;;;;;;;;;;;;;;;;;
2023/01/20 01:07:24;;;;;;;;;;;;;;;;;;;;;
2023/01/20 01:13:14;;;;;;;;;;;;;;;;;;;;;
2023/01/20 01:16:13;;;;;;;78.63;18.25;;;1.30;99.90;;;;;;6105841;23;20175;-82
2023/01/20 01:18:53;;;;;;;78.30;18.00;;;1.40;99.90;;;;;;6019223;23;20181;-82
2023/01/20 01:21:28;;;;;;;82.70;21.95;;;1.30;99.90;;;;;;6018207;23;20200;-82
2023/01/20 01:24:09;;;;;;;79.78;22.42;;;1.30;99.90;;;;;;6029885;23;20517;-82
2023/01/20 01:30:45;;;;;;;;;;;;;;;;;;;;;
2023/01/20 01:36:36;;;;;;;80.32;22.73;;;1.40;99.90;;;;;;6192118;23;20145;-82
2023/01/20 01:39:27;;;;;;;80.18;23.50;;;1.30;99.90;;;;;;6195207;23;20616;-82
2023/01/20 01:42:44;;;;;;;83.10;21.80;;;1.30;99.90;;;;;;6194377;23;20172;-82
2023/01/20 01:45:21;;;;;;;81.15;23.88;;;1.20;99.90;;;;;;6123514;23;20156;-82
2023/01/20 01:52:11;;;;;;;76.05;20.88;;;1.20;99.90;;;;;;6029744;23;20199;-82
2023/01/20 01:54:57;;;;;;;81.45;23.65;;;1.10;99.90;;;;;;6020841;23;20155;-82
2023/01/20 01:57:34;;;;;;;81.10;24.15;;;1.10;99.90;;;;;;6043170;23;20149;-82
2023/01/20 02:00:29;;;;;;;;;;;;;;;;;;;;;
2023/01/20 02:03:45;;;;;;;;;;;;;;;;;;;;;
2023/01/20 02:07:04;;;;;;;84.57;24.80;;;0.90;99.90;;;;;;6043330;23;20228;-82
2023/01/20 02:10:05;;;;;;;89.40;23.73;;;0.90;99.90;;;;;;5986796;24;20150;-82
2023/01/20 02:16:31;;;;;;;83.13;21.17;;;1.00;99.90;;;;;;6044204;23;20149;-82
2023/01/20 02:19:40;;;;;;;85.03;22.52;;;0.90;99.90;;;;;;6044639;23;20183;-82
2023/01/20 02:22:44;;;;;;;80.13;23.52;;;0.90;99.90;;;;;;6099567;23;20192;-82
2023/01/20 02:25:47;;;;;;;;;;;;;;;;;;;;;
2023/01/20 02:29:07;;;;;;;81.88;26.70;;;0.90;99.90;;;;;;6192650;23;20175;-82
2023/01/20 02:39:24;;;;;;;80.28;23.55;;;0.80;99.90;;;;;;6119763;23;20202;-82
2023/01/20 02:42:42;;;;;;;76.38;21.67;;;0.90;99.90;;;;;;6131140;23;20172;-82
2023/01/20 02:45:56;;;;;;;85.97;23.80;;;0.90;99.90;;;;;;6130166;23;20305;-82
2023/01/20 02:48:54;;;;;;;80.50;19.65;;;0.80;99.90;;;;;;6180060;23;20152;-82
2023/01/20 02:54:50;;;;;;;77.38;18.75;;;0.90;99.90;;;;;;6180839;23;20180;-82
2023/01/20 02:57:58;;;;;;;78.35;19.05;;;0.90;99.90;;;;;;6192362;23;20122;-82
2023/01/20 03:01:06;;;;;;;78.22;18.48;;;0.80;99.90;;;;;;6191405;23;20538;-82
2023/01/20 03:04:01;;;;;;;82.53;21.95;;;0.90;99.90;;;;;;6192217;23;20468;-82
2023/01/20 03:07:00;;;;;;;78.13;17.73;;;0.80;99.90;;;;;;6191796;23;20145;-82
2023/01/20 03:10:06;;;;;;;81.72;17.02;;;0.70;99.90;;;;;;6192767;23;20153;-82
2023/01/20 03:13:12;;;;;;;77.10;18.30;;;0.70;99.90;;;;;;6191456;23;20152;-82
2023/01/20 03:16:20;;;;;;;;;;;;;;;;;;;;;
2023/01/20 03:21:50;;;;;;;76.93;16.50;;;0.70;99.90;;;;;;6191659;23;20184;-82
2023/01/20 03:24:55;;;;;;;85.63;18.67;;;0.60;99.90;;;;;;6191034;23;20157;-82
2023/01/20 03:27:49;;;;;;;87.57;18.80;;;0.40;99.90;;;;;;6077721;23;20689;-82
2023/01/20 03:34:00;;;;;;;76.45;14.68;;;0.40;99.90;;;;;;6015614;23;20223;-81
2023/01/20 03:36:47;;;;;;;77.20;15.50;;;0.50;99.90;;;;;;6071103;23;20238;-82
2023/01/20 03:39:38;;;;;;;78.53;16.70;;;0.50;99.90;;;;;;6047858;23;20148;-82
2023/01/20 03:42:51;;;;;;;80.50;15.65;;;0.50;99.90;;;;;;6071925;23;20168;-82
2023/01/20 03:45:47;;;;;;;77.82;15.52;;;0.50;99.90;;;;;;6105117;23;20146;-82
2023/01/20 03:48:58;;;;;;;;;;;;;;;;;;;;;
2023/01/20 03:52:15;;;;;;;81.13;15.98;;;0.50;99.90;;;;;;6160455;23;20725;-82
2023/01/20 03:55:39;;;;;;;78.25;14.30;;;0.50;99.90;;;;;;6191469;23;20133;-82
2023/01/20 03:58:29;;;;;;;77.85;14.40;;;0.50;99.90;;;;;;6185487;23;20661;-82
2023/01/20 04:01:29;;;;;;;;;;;;;;;;;;;;;
2023/01/20 04:04:28;;;;;;;75.40;13.75;;;0.50;99.90;;;;;;6181494;23;20232;-82
2023/01/20 04:07:44;;;;;;;;;;;;;;;;;;;;;
2023/01/20 04:11:01;;;;;;;79.35;14.60;;;0.50;99.90;;;;;;6094413;22;21229;-82
2023/01/20 04:14:14;;;;;;;79.70;14.98;;;0.60;99.90;;;;;;6251764;23;20532;-82
2023/01/20 04:17:35;;;;;;;81.40;14.32;;;0.60;99.90;;;;;;6129276;23;20162;-82
2023/01/20 04:23:11;;;;;;;77.47;14.40;;;0.70;99.90;;;;;;6221282;22;20628;-82
2023/01/20 04:25:54;;;;;;;80.63;16.48;;;0.80;99.90;;;;;;6221552;23;20469;-83
2023/01/20 04:32:28;;;;;;;79.63;15.07;;;0.80;99.90;;;;;;6064055;23;20704;-83
2023/01/20 04:38:35;;;;;;;75.90;15.32;;;0.90;99.90;;;;;;5987806;24;20160;-83
2023/01/20 04:41:29;;;;;;;84.07;15.57;;;0.90;99.90;;;;;;6178230;23;20665;-83
2023/01/20 04:44:20;;;;;;;77.72;14.95;;;0.90;99.90;;;;;;6192279;23;20207;-82
2023/01/20 04:47:31;;;;;;;85.82;20.00;;;0.90;99.90;;;;;;6192146;23;20590;-82
2023/01/20 04:50:22;;;;;;;80.57;15.32;;;0.90;99.90;;;;;;6190659;23;20152;-82
2023/01/20 04:53:06;;;;;;;82.88;15.63;;;1.00;99.90;;;;;;6192163;23;20500;-83
2023/01/20 04:56:09;;;;;;;;;;;;;;;;;;;;;
2023/01/20 04:58:47;;;;;;;83.18;16.05;;;1.10;99.90;;;;;;6184978;23;20149;-83
2023/01/20 05:01:25;;;;;;;87.55;17.15;;;1.10;99.90;;;;;;6193376;23;20175;-82
2023/01/20 05:04:26;;;;;;;80.80;14.85;;;1.10;99.90;;;;;;6166864;23;20156;-83
2023/01/20 05:07:19;;;;;;;80.15;14.85;;;1.20;99.90;;;;;;6188937;23;20223;-83
2023/01/20 05:15:51;;;;;;;81.13;16.25;;;1.30;99.90;;;;;;6144543;23;20207;-85
2023/01/20 05:18:20;;;;;;;79.93;15.20;;;1.30;99.90;;;;;;6231298;23;20235;-85
2023/01/20 05:20:58;;;;;;;79.45;16.20;;;1.30;99.90;;;;;;6219227;23;20396;-85
2023/01/20 05:23:27;;;;;;;82.35;14.77;;;1.30;99.90;;;;;;6204591;23;20141;-85
2023/01/20 05:25:52;;;;;;;78.28;13.95;;;1.30;99.90;;;;;;6205026;23;20152;-85
2023/01/20 05:28:18;;;;;;;77.47;13.10;;;1.30;99.90;;;;;;6205660;23;20141;-85
2023/01/20 05:30:47;;;;;;;79.90;14.57;;;1.30;99.90;;;;;;6204679;23;20173;-85
2023/01/20 05:33:13;;;;;;;78.13;14.50;;;1.40;99.90;;;;;;6204963;23;20416;-85
2023/01/20 05:35:39;;;;;;;90.97;15.97;;;1.30;99.90;;;;;;6179051;23;20145;-85
2023/01/20 05:38:05;;;;;;;80.97;16.70;;;1.30;99.90;;;;;;6179070;23;20384;-85
2023/01/20 05:40:33;;;;;;;85.30;15.97;;;1.30;99.90;;;;;;6205188;23;20161;-85
2023/01/20 05:43:02;;;;;;;78.65;14.65;;;1.20;99.90;;;;;;6179088;23;20450;-85
2023/01/20 05:45:33;;;;;;;81.55;14.60;;;1.30;99.90;;;;;;6204097;23;20152;-85
2023/01/20 05:48:05;;;;;;;78.60;14.00;;;1.30;99.90;;;;;;6179242;23;20142;-85
2023/01/20 05:50:34;;;;;;;80.28;13.98;;;1.30;99.90;;;;;;6179092;23;20180;-85
2023/01/20 05:53:00;;;;;;;79.55;14.63;;;1.30;99.90;;;;;;6204075;23;20196;-85
2023/01/20 05:55:25;;;;;;;81.23;15.07;;;1.30;99.90;;;;;;6204910;23;20137;-85
2023/01/20 05:57:51;;;;;;;77.63;14.57;;;1.30;99.90;;;;;;6178694;23;20177;-86
2023/01/20 06:00:18;;;;;;;77.00;15.03;;;1.40;99.90;;;;;;6178995;23;20424;-85
2023/01/20 06:02:47;;;;;;;85.32;16.20;;;1.40;99.90;;;;;;6205158;23;20691;-85
2023/01/20 06:05:12;;;;;;;80.68;13.52;;;1.30;99.90;;;;;;6205449;23;20141;-85
2023/01/20 06:07:38;;;;;;;78.20;14.50;;;1.20;99.90;;;;;;6205125;23;20141;-85
2023/01/20 06:10:04;;;;;;;74.47;14.07;;;1.20;99.90;;;;;;6204951;23;20184;-85
2023/01/20 06:12:30;;;;;;;79.28;14.63;;;1.10;99.90;;;;;;6178982;23;20177;-85
2023/01/20 06:14:56;;;;;;;79.63;15.10;;;1.10;99.90;;;;;;6179245;23;20200;-85
2023/01/20 06:17:22;;;;;;;79.97;14.47;;;1.00;99.90;;;;;;6204497;23;20156;-84
2023/01/20 06:19:47;;;;;;;78.57;14.40;;;1.00;99.90;;;;;;6205197;23;20368;-84
2023/01/20 06:22:14;;;;;;;76.30;13.20;;;1.10;99.90;;;;;;6205955;23;20141;-84
2023/01/20 06:24:43;;;;;;;76.30;13.13;;;1.10;99.90;;;;;;6205106;23;20145;-85
2023/01/20 06:27:09;;;;;;;79.13;13.50;;;1.20;99.90;;;;;;6178528;23;20160;-84
2023/01/20 06:29:35;;;;;;;80.32;14.13;;;1.20;99.90;;;;;;6205180;23;20145;-84
2023/01/20 06:32:04;;;;;;;76.23;11.23;;;1.20;99.90;;;;;;6204894;23;20161;-84
2023/01/20 06:34:30;;;;;;;75.00;13.15;;;1.20;99.90;;;;;;6204761;23;20361;-84
2023/01/20 06:36:57;;;;;;;75.78;13.00;;;1.10;99.90;;;;;;6179004;23;20149;-85
2023/01/20 06:39:26;;;;;;;75.88;14.75;;;1.10;99.90;;;;;;6205661;23;20137;-84
2023/01/20 06:41:51;;;;;;;73.15;14.75;;;1.10;99.90;;;;;;6153136;23;20169;-85
2023/01/20 06:44:20;;;;;;;77.60;17.23;;;1.00;99.90;;;;;;6179060;23;20169;-85
2023/01/20 06:46:46;;;;;;;73.68;16.42;;;1.00;99.90;;;;;;6179019;23;20376;-85
2023/01/20 06:49:12;;;;;;;79.80;16.40;;;1.00;99.90;;;;;;6178464;23;20192;-85
2023/01/20 06:51:37;;;;;;;76.80;14.40;;;1.00;99.90;;;;;;6205912;23;20169;-85
2023/01/20 06:54:03;;;;;;;76.17;16.30;;;1.00;99.90;;;;;;6205687;23;20372;-85
2023/01/20 06:56:29;;;;;;;75.90;16.17;;;0.90;99.90;;;;;;6205214;23;20148;-85
2023/01/20 06:58:55;;;;;;;87.10;16.23;;;1.00;99.90;;;;;;6205319;23;20443;-85
2023/01/20 07:01:23;;;;;;;82.87;18.20;;;0.90;99.90;;;;;;6178215;23;20435;-85
2023/01/20 07:03:53;;;;;;;78.15;13.93;;;0.90;99.90;;;;;;6179836;23;20169;-85
2023/01/20 07:06:34;;;;;;;75.60;14.45;;;0.90;99.90;;;;;;6179482;23;20149;-85
2023/01/20 07:09:04;;;;;;;74.68;16.05;;;0.90;99.90;;;;;;6205673;23;20116;-85
2023/01/20 07:11:30;;;;;;;76.35;15.73;;;1.00;99.90;;;;;;6179123;23;20173;-85
2023/01/20 07:13:59;;;;;;;79.25;19.73;;;0.90;99.90;;;;;;6178332;23;20152;-85
2023/01/20 07:16:24;;;;;;;74.93;18.80;;;0.90;99.90;;;;;;6177560;23;20192;-85
2023/01/20 07:18:51;;;;;;;78.50;20.17;;;0.90;99.90;;;;;;6204556;23;20141;-85
2023/01/20 07:21:18;;;;;;;81.50;21.98;;;0.90;99.90;;;;;;6178007;23;20176;-85
2023/01/20 07:24:05;;;;;;;80.88;17.65;;;0.80;99.90;;;;;;6204996;23;20179;-85
2023/01/20 07:26:31;;;;;;;74.45;19.00;;;0.80;99.90;;;;;;6178164;23;20167;-85
2023/01/20 07:28:59;;;;;;;82.90;21.37;;;0.70;99.90;;;;;;6204043;23;20153;-85
2023/01/20 07:31:27;;;;;;;76.78;20.48;;;0.80;99.90;;;;;;6203882;23;20172;-85
2023/01/20 07:33:56;;;;;;;76.05;19.83;;;0.70;99.90;;;;;;6203430;23;20156;-85
2023/01/20 07:36:23;;;;;;;76.05;17.75;;;0.70;99.90;;;;;;6204308;23;20276;-85
2023/01/20 07:38:49;;;;;;;77.72;18.23;;;0.70;99.90;;;;;;6203838;23;20137;-84
2023/01/20 07:41:19;;;;;;;78.55;17.00;;;0.70;99.90;;;;;;6154689;23;20169;-85
2023/01/20 07:43:46;;;;;;;75.20;16.75;;;0.70;99.90;;;;;;6204414;23;20152;-85
2023/01/20 07:46:13;;;;;;;75.78;13.68;;;0.70;99.90;;;;;;6203876;23;20145;-85
2023/01/20 07:48:39;;;;;;;77.90;13.98;;;0.70;99.90;;;;;;6204622;23;20126;-85
2023/01/20 07:51:08;;;;;;;76.25;14.10;;;0.70;99.90;;;;;;6203696;23;20173;-85
2023/01/20 07:53:38;;;;;;;73.78;13.60;;;0.70;99.90;;;;;;6152305;23;20161;-84
2023/01/20 07:56:07;;;;;;;75.75;14.52;;;0.60;99.90;;;;;;6203106;23;20388;-84
2023/01/20 07:58:33;;;;;;;74.88;12.90;;;0.70;99.90;;;;;;6177383;23;20219;-84
2023/01/20 08:01:17;;;;;;;74.35;13.00;;;0.70;99.90;;;;;;6202325;23;20168;-84
2023/01/20 08:03:43;;;;;;;75.75;13.52;;;0.70;99.90;;;;;;6203908;23;20198;-84
2023/01/20 08:06:11;;;;;;;74.93;12.98;;;0.70;99.90;;;;;;6204462;23;20149;-84
2023/01/20 08:08:38;;;;;;;78.68;13.50;;;0.70;99.90;;;;;;6209287;23;20151;-84
2023/01/20 08:11:05;;;;;;;72.80;13.70;;;0.70;99.90;;;;;;6203533;23;20174;-84
2023/01/20 08:13:31;;;;;;;74.57;13.63;;;0.70;99.90;;;;;;6177790;23;20145;-84
2023/01/20 08:16:05;;;;;;;74.78;16.48;;;0.80;99.90;;;;;;6202803;23;20161;-84
2023/01/20 08:18:32;;;;;;;72.32;14.15;;;0.80;99.90;;;;;;6203556;23;20137;-84
2023/01/20 08:20:58;;;;;;;72.60;17.67;;;0.90;99.90;;;;;;6176903;23;20175;-84
2023/01/20 08:23:27;;;;;;;76.50;18.77;;;1.00;99.90;;;;;;6203292;23;20145;-84
2023/01/20 08:25:58;;;;;;;73.95;16.38;;;1.00;99.90;;;;;;6203072;23;20141;-84
2023/01/20 08:28:25;;;;;;;79.40;17.40;;;1.00;99.90;;;;;;6176527;23;20153;-84
2023/01/20 08:30:50;;;;;;;77.35;18.30;;;0.90;99.90;;;;;;6202118;23;20252;-84
2023/01/20 08:33:16;;;;;;;77.47;18.17;;;0.90;99.90;;;;;;6203338;23;20145;-84
2023/01/20 08:35:42;;;;;;;75.07;15.67;;;1.00;99.90;;;;;;6203512;23;20371;-84
2023/01/20 08:38:08;;;;;;;78.47;17.27;;;0.90;99.90;;;;;;6200735;23;20137;-83
2023/01/20 08:40:34;;;;;;;79.93;18.90;;;1.00;99.90;;;;;;6201135;23;20400;-83
2023/01/20 08:43:00;;;;;;;80.17;21.27;;;1.10;99.90;;;;;;6201867;23;20376;-84
2023/01/20 08:45:28;;;;;;;80.37;22.60;;;1.10;99.90;;;;;;6177264;23;20380;-85
2023/01/20 08:47:54;;;;;;;79.97;21.73;;;1.20;99.90;;;;;;6203053;23;20375;-84
2023/01/20 08:50:22;;;;;;;76.87;22.33;;;1.30;99.90;;;;;;6202477;23;20232;-84
2023/01/20 08:52:48;;;;;;;78.30;22.13;;;1.30;99.90;;;;;;6202589;23;20122;-84
2023/01/20 08:55:14;;;;;;;80.65;22.10;;;1.40;99.90;;;;;;6203186;23;20130;-84
2023/01/20 08:57:39;;;;;;;78.67;23.27;;;1.30;99.90;;;;;;6204158;23;20143;-84
2023/01/20 09:00:09;;;;;;;76.17;19.20;;;1.30;99.90;;;;;;6178773;23;20396;-84
2023/01/20 09:02:36;;;;;;;77.80;20.17;;;1.30;99.90;;;;;;6178819;23;20138;-84
2023/01/20 09:05:03;;;;;;;90.10;22.77;;;1.30;99.90;;;;;;6204975;23;20212;-84
2023/01/20 09:07:29;;;;;;;78.30;22.30;;;1.30;99.90;;;;;;6205340;23;20165;-84
2023/01/20 09:09:54;;;;;;;77.67;19.50;;;1.30;99.90;;;;;;6204781;23;20150;-84
2023/01/20 09:12:20;;;;;;;76.20;17.63;;;1.40;99.90;;;;;;6205711;23;20161;-84
2023/01/20 09:14:46;;;;;;;78.00;18.00;;;1.40;1.00;;;;;;6203861;23;20412;-84
2023/01/20 09:17:13;;;;;;;78.03;17.23;;;1.40;99.90;;;;;;6179397;23;20248;-84
2023/01/20 09:19:39;;;;;;;76.85;19.05;;;1.30;99.90;;;;;;6179393;23;20724;-84
2023/01/20 09:22:05;;;;;;;79.53;16.43;;;1.40;1.00;;;;;;6178919;23;20252;-84
2023/01/20 09:24:31;;;;;;;75.50;12.13;;;1.50;1.00;;;;;;6205115;23;20375;-84
2023/01/20 09:26:57;;;;;;;76.85;12.18;;;1.60;1.00;;;;;;6179229;23;20172;-84
2023/01/20 09:29:23;;;;;;;77.53;12.07;;;1.70;1.00;;;;;;6205804;23;20145;-84
2023/01/20 09:32:00;;;;;;;75.28;11.45;;;1.70;1.00;;;;;;6204867;23;20428;-84
2023/01/20 09:34:28;;;;;;;70.70;10.25;;;1.90;99.90;;;;;;6206297;23;20184;-84
2023/01/20 09:45:54;;;;;;;79.00;12.85;;;1.90;1.00;;;;;;6205092;23;20144;-84
2023/01/20 09:54:32;;;;;;;78.15;11.68;;;2.00;99.90;;;;;;6205414;23;20143;-84
2023/01/20 09:57:00;;;;;;;78.13;11.70;;;2.20;99.90;;;;;;6205087;23;20125;-84
2023/01/20 09:59:41;;;;;;;73.60;10.40;;;2.10;29.90;;;;;;6205687;23;20188;-84
2023/01/20 10:02:17;;;;;;;76.45;12.65;;;2.20;2.60;;;;;;6179284;23;20173;-84
2023/01/20 10:04:53;;;;;;;74.85;13.05;;;2.30;1.00;;;;;;6205514;23;20129;-84
2023/01/20 10:07:25;;;;;;;79.13;11.93;;;2.40;16.90;;;;;;6179288;23;20152;-85
2023/01/20 10:10:03;;;;;;;77.57;11.30;;;2.40;1.00;;;;;;6203062;23;20208;-85
2023/01/20 10:12:45;;;;;;;76.15;11.98;;;2.30;1.00;;;;;;6204289;23;20169;-84
2023/01/20 10:15:25;;;;;;;74.13;11.23;;;2.30;1.00;;;;;;6178756;23;20164;-84
2023/01/20 10:18:24;;;;;;;74.38;11.15;;;2.40;1.00;;;;;;6204842;23;20575;-84
2023/01/20 10:21:12;;;;;;;77.85;9.85;;;2.60;1.00;;;;;;6170116;23;20169;-84
2023/01/20 10:24:18;;;;;;;76.70;9.65;;;2.60;1.00;;;;;;6205393;23;20478;-84
2023/01/20 10:27:03;;;;;;;70.30;9.50;;;2.70;1.00;;;;;;6161479;23;20156;-85
2023/01/20 10:29:40;;;;;;;71.47;9.70;;;2.80;1.00;;;;;;6177914;23;20518;-84
2023/01/20 10:32:35;;;;;;;76.97;11.13;;;2.80;1.00;;;;;;6154101;23;20176;-84
2023/01/20 10:35:14;;;;;;;74.00;10.60;;;2.90;1.00;;;;;;6204601;23;20125;-85
2023/01/20 10:37:46;;;;;;;81.60;11.80;;;2.90;1.00;;;;;;6178561;23;20168;-85
2023/01/20 10:41:02;;;;;;;73.65;9.88;;;3.10;1.00;;;;;;6204518;23;20157;-85
2023/01/20 10:43:30;;;;;;;76.70;9.77;;;3.00;99.90;;;;;;6130949;23;20172;-85
2023/01/20 10:46:41;;;;;;;74.68;10.90;;;3.00;99.90;;;;;;6179092;23;20152;-85
2023/01/20 10:49:19;;;;;;;72.93;9.52;;;3.00;99.90;;;;;;6175873;23;20182;-85
2023/01/20 10:52:13;;;;;;;73.97;10.80;;;3.00;99.90;;;;;;6205123;23;20169;-85
2023/01/20 10:55:13;;;;;;;75.72;9.90;;;2.90;99.90;;;;;;6179101;23;20138;-86
2023/01/20 10:57:55;;;;;;;75.43;10.15;;;2.90;99.90;;;;;;6178778;23;20145;-86
2023/01/20 11:00:25;;;;;;;70.55;9.15;;;3.00;99.90;;;;;;6178180;23;20161;-86
2023/01/20 11:02:58;;;;;;;79.43;11.10;;;2.80;99.90;;;;;;6179502;23;20121;-86
2023/01/20 11:05:37;;;;;;;73.40;10.85;;;2.70;99.90;;;;;;6206424;23;20141;-86
2023/01/20 11:08:32;;;;;;;73.00;9.60;;;2.70;99.90;;;;;;6177080;23;20152;-86
2023/01/20 11:11:31;;;;;;;79.85;10.80;;;2.70;99.90;;;;;;6177657;23;20180;-86
2023/01/20 11:13:58;;;;;;;77.38;11.32;;;2.60;99.90;;;;;;6179149;23;20142;-85
2023/01/20 11:16:29;;;;;;;73.55;10.77;;;2.60;99.90;;;;;;6176959;23;20618;-85
2023/01/20 11:19:06;;;;;;;73.85;11.50;;;2.60;99.90;;;;;;6204800;23;20137;-85
2023/01/20 11:21:35;;;;;;;74.88;10.30;;;2.70;99.90;;;;;;6178773;23;20169;-85
2023/01/20 11:24:24;;;;;;;73.00;10.88;;;2.70;99.90;;;;;;6178548;23;20156;-85
2023/01/20 11:27:06;;;;;;;71.75;10.45;;;2.70;99.90;;;;;;6204540;23;20153;-85
2023/01/20 11:29:37;;;;;;;75.47;10.35;;;2.80;99.90;;;;;;6178688;23;20141;-85
2023/01/20 11:32:22;;;;;;;73.97;10.60;;;2.80;99.90;;;;;;6203545;23;20177;-85
2023/01/20 11:34:48;;;;;;;82.07;12.32;;;2.90;99.90;;;;;;6204536;23;20152;-84
2023/01/20 11:37:20;;;;;;;77.78;11.80;;;2.80;99.90;;;;;;6205326;23;20133;-85
2023/01/20 11:39:49;;;;;;;79.32;10.20;;;2.90;99.90;;;;;;6177679;23;20148;-85
2023/01/20 11:42:23;;;;;;;73.38;9.43;;;3.00;99.90;;;;;;6177784;23;20150;-84
2023/01/20 11:44:56;;;;;;;73.53;10.48;;;3.00;99.90;;;;;;6179019;23;20140;-84
2023/01/20 11:47:35;;;;;;;80.85;11.18;;;3.00;99.90;;;;;;6204201;23;20141;-84
2023/01/20 11:50:03;;;;;;;73.70;10.30;;;3.00;99.90;;;;;;6204380;23;20125;-84
2023/01/20 11:52:33;;;;;;;74.93;9.93;;;3.10;99.90;;;;;;6177366;23;20188;-84
2023/01/20 11:55:19;;;;;;;74.38;10.90;;;3.10;99.90;;;;;;6204099;23;20160;-84
2023/01/20 11:57:47;;;;;;;75.47;9.25;;;3.10;99.90;;;;;;6204077;23;20137;-85
2023/01/20 12:00:39;;;;;;;77.70;11.40;;;3.20;99.90;;;;;;6204435;23;20165;-85
2023/01/20 12:03:30;;;;;;;73.80;9.40;;;3.20;99.90;;;;;;6177451;23;20157;-84
2023/01/20 12:06:12;;;;;;;74.35;10.15;;;3.10;99.90;;;;;;6177580;23;20200;-85
2023/01/20 12:08:53;;;;;;;74.75;10.63;;;3.20;99.90;;;;;;6178867;23;20145;-86
2023/01/20 12:11:44;;;;;;;74.82;10.80;;;3.10;99.90;;;;;;6203652;23;20220;-85
2023/01/20 12:14:28;;;;;;;75.85;11.93;;;3.00;1.00;;;;;;6204531;23;20132;-85
2023/01/20 12:16:57;;;;;;;74.70;12.10;;;2.80;1.00;;;;;;6178774;23;20164;-85
2023/01/20 12:19:46;;;;;;;82.75;12.50;;;2.90;99.90;;;;;;6204673;23;20161;-85
2023/01/20 12:22:19;;;;;;;76.38;11.35;;;2.80;99.90;;;;;;6178115;23;20208;-85
2023/01/20 12:25:09;;;;;;;79.32;12.63;;;3.00;99.70;;;;;;6204601;23;20272;-85
2023/01/20 12:28:08;;;;;;;76.15;12.25;;;2.80;99.90;;;;;;6205702;23;20129;-85
2023/01/20 12:30:40;;;;;;;74.85;13.77;;;2.80;99.90;;;;;;6204513;23;20171;-86
2023/01/20 12:33:22;;;;;;;76.22;14.50;;;2.80;99.90;;;;;;6178242;23;20188;-86
2023/01/20 12:36:23;;;;;;;77.50;15.43;;;2.80;99.90;;;;;;6205323;23;20121;-86
2023/01/20 12:39:09;;;;;;;80.07;19.65;;;2.70;99.90;;;;;;6178900;23;20529;-86
2023/01/20 12:41:59;;;;;;;83.55;24.48;;;2.60;99.90;;;;;;6204645;23;20149;-86
2023/01/20 12:44:28;;;;;;;79.88;22.38;;;2.50;99.90;;;;;;6204639;23;20156;-85
2023/01/20 12:47:11;;;;;;;81.53;26.10;;;2.50;99.90;;;;;;6203561;23;20145;-85
2023/01/20 12:50:02;;;;;;;80.50;23.15;;;2.50;99.90;;;;;;6204694;23;20129;-85
2023/01/20 12:52:37;;;;;;;83.03;21.77;;;2.60;99.90;;;;;;6197751;23;20176;-85
2023/01/20 12:55:28;;;;;;;78.50;22.63;;;2.60;99.90;;;;;;6178827;23;20140;-85
2023/01/20 12:58:22;;;;;;;80.40;24.10;;;2.60;99.90;;;;;;6205644;23;20137;-85
2023/01/20 13:01:26;;;;;;;77.30;23.10;;;2.50;99.90;;;;;;6203272;23;20666;-85
2023/01/20 13:04:16;;;;;;;79.15;23.85;;;2.50;99.90;;;;;;6204526;23;20204;-85
2023/01/20 13:06:54;;;;;;;78.80;25.33;;;2.40;99.90;;;;;;6178889;23;20148;-86
2023/01/20 13:09:43;;;;;;;79.32;22.05;;;2.40;99.90;;;;;;6204188;23;20443;-86
2023/01/20 13:12:27;;;;;;;77.90;21.25;;;2.30;99.90;;;;;;6204144;23;20158;-86
2023/01/20 13:15:18;;;;;;;77.55;21.33;;;2.20;99.90;;;;;;6204730;23;20126;-86
2023/01/20 13:17:56;;;;;;;78.32;17.38;;;2.20;99.90;;;;;;6204373;23;20155;-86
2023/01/20 13:20:25;;;;;;;74.75;15.25;;;2.10;99.90;;;;;;6203986;23;20220;-86
2023/01/20 13:22:52;;;;;;;78.40;15.13;;;2.00;99.90;;;;;;6178595;23;20479;-85
2023/01/20 13:25:19;;;;;;;81.95;14.98;;;2.00;99.90;;;;;;6205590;23;20137;-84
2023/01/20 13:27:46;;;;;;;78.53;15.25;;;2.00;99.90;;;;;;6203526;23;20144;-85
2023/01/20 13:30:41;;;;;;;77.18;16.60;;;1.90;99.90;;;;;;6202751;23;20188;-85
2023/01/20 13:33:33;;;;;;;77.35;14.65;;;1.90;99.90;;;;;;6204355;23;20598;-85
2023/01/20 13:36:25;;;;;;;76.30;13.50;;;1.90;99.90;;;;;;6178142;23;20141;-84
2023/01/20 13:39:31;;;;;;;79.00;14.57;;;1.90;99.90;;;;;;6200427;23;20204;-84
2023/01/20 13:41:57;;;;;;;78.15;14.52;;;1.70;99.90;;;;;;6202994;23;20161;-84
2023/01/20 13:44:42;;;;;;;79.47;15.75;;;1.80;99.90;;;;;;6205226;23;20190;-85
2023/01/20 13:47:09;;;;;;;77.15;15.43;;;1.70;99.90;;;;;;6206579;23;20136;-85
2023/01/20 13:49:52;;;;;;;77.97;17.30;;;1.70;99.90;;;;;;6206117;23;20149;-85
2023/01/20 13:52:51;;;;;;;80.85;18.33;;;1.70;99.90;;;;;;6205707;23;20157;-84
2023/01/20 13:55:42;;;;;;;76.57;16.30;;;1.60;99.90;;;;;;6206209;23;20141;-85
2023/01/20 13:58:32;;;;;;;78.55;17.25;;;1.60;99.90;;;;;;6205766;23;20145;-84
2023/01/20 14:01:08;;;;;;;76.28;16.65;;;1.70;99.90;;;;;;6199386;23;20196;-84
2023/01/20 14:03:36;;;;;;;76.15;20.00;;;1.60;99.90;;;;;;6206790;23;20129;-85
2023/01/20 14:06:11;;;;;;;77.20;21.48;;;1.60;99.90;;;;;;6206118;23;20195;-85
2023/01/20 14:08:42;;;;;;;78.70;22.42;;;1.50;99.90;;;;;;6206389;23;20148;-85
2023/01/20 14:11:25;;;;;;;74.53;21.42;;;1.50;99.90;;;;;;6205851;23;20169;-85
2023/01/20 14:13:54;;;;;;;79.70;22.20;;;1.50;99.90;;;;;;6206361;23;20125;-85
2023/01/20 14:16:40;;;;;;;76.57;23.17;;;1.50;99.90;;;;;;6207162;23;20240;-85
2023/01/20 14:19:35;;;;;;;75.60;19.98;;;1.40;99.90;;;;;;6206700;23;20129;-86
2023/01/20 14:24:42;;;;;;;76.55;21.15;;;1.50;99.90;;;;;;6237634;23;20180;-85
2023/01/20 14:29:45;;;;;;;73.55;19.88;;;1.40;99.90;;;;;;6231464;22;20203;-84
2023/01/20 14:32:37;;;;;;;75.72;19.40;;;1.40;99.90;;;;;;6182584;23;20191;-84
2023/01/20 14:35:15;;;;;;;75.97;18.15;;;1.40;99.90;;;;;;6180803;23;20140;-84
2023/01/20 14:37:42;;;;;;;76.13;17.92;;;1.40;99.90;;;;;;6206850;23;20176;-84
2023/01/20 14:40:11;;;;;;;72.05;15.90;;;1.40;99.90;;;;;;6205694;23;20157;-86
2023/01/20 14:43:10;;;;;;;75.05;19.45;;;1.40;99.90;;;;;;6206018;23;20152;-84
2023/01/20 14:45:36;;;;;;;73.97;16.10;;;1.40;99.90;;;;;;6205184;23;20156;-86
2023/01/20 14:48:10;;;;;;;73.82;18.73;;;1.40;99.90;;;;;;6205229;23;20130;-87
2023/01/20 14:50:38;;;;;;;74.47;17.83;;;1.40;99.90;;;;;;6204646;23;20165;-87
2023/01/20 14:53:03;;;;;;;76.80;19.58;;;1.40;99.90;;;;;;6178227;23;20128;-86
2023/01/20 14:55:40;;;;;;;74.93;18.30;;;1.40;99.90;;;;;;6204093;23;20141;-87
2023/01/20 14:58:17;;;;;;;79.13;15.30;;;1.40;99.90;;;;;;6180902;23;20149;-82
2023/01/20 15:00:47;;;;;;;74.95;16.27;;;1.50;99.90;;;;;;6181120;23;20712;-83
2023/01/20 15:03:24;;;;;;;76.47;16.52;;;1.40;99.90;;;;;;6204551;23;20130;-86
2023/01/20 15:06:05;;;;;;;72.70;15.13;;;1.40;99.90;;;;;;6204995;23;20130;-86
2023/01/20 15:08:52;;;;;;;80.85;16.27;;;1.30;99.90;;;;;;6178499;23;20141;-86
2023/01/20 15:11:23;;;;;;;75.30;16.90;;;1.30;99.90;;;;;;6203651;23;20200;-86
2023/01/20 15:13:56;;;;;;;76.22;14.93;;;1.30;99.90;;;;;;6204282;23;20121;-86
2023/01/20 15:16:29;;;;;;;76.10;17.67;;;1.40;99.90;;;;;;6180168;23;20130;-86
2023/01/20 15:19:17;;;;;;;78.00;16.00;;;1.50;99.90;;;;;;6205711;23;20141;-86
2023/01/20 15:21:57;;;;;;;74.97;18.65;;;1.50;99.90;;;;;;6205666;23;20162;-86
2023/01/20 15:24:29;;;;;;;80.47;19.15;;;1.50;99.90;;;;;;6180015;23;20141;-86
2023/01/20 15:26:55;;;;;;;79.70;18.35;;;1.40;99.90;;;;;;6205444;23;20136;-86
2023/01/20 15:29:24;;;;;;;85.60;19.52;;;1.40;99.90;;;;;;6205268;23;20583;-86
2023/01/20 15:31:51;;;;;;;82.95;19.42;;;1.50;99.90;;;;;;6178579;23;20189;-86
2023/01/20 15:34:18;;;;;;;83.18;18.52;;;1.50;99.90;;;;;;6178986;23;20153;-86
2023/01/20 15:36:46;;;;;;;85.05;17.77;;;1.50;99.90;;;;;;6205023;23;20141;-85